Time,TemperatureF,DewpointF,PressureIn,WindDirection,WindDirectionDegrees,WindSpeedMPH,WindSpeedGustMPH,Humidity,HourlyPrecipIn,Conditions,Clouds,dailyrainin,SolarRadiationWatts/m^2,SoftwareType,DateUTC
2013-08-11 00:01:00,57.4,51.6,30.05,West,264,0.0,0.0,81,0.01,RA,,0.00,0.0,WeatherDisplay:10.37,2013-08-10 22:01:00,
2013-08-11 00:06:00,57.4,51.6,30.06,West,265,1.2,1.2,81,0.01,RA,,0.00,0.0,WeatherDisplay:10.37,2013-08-10 22:06:00,
2013-08-11 00:11:00,57.4,51.6,30.06,West,265,1.2,1.2,81,0.01,CLR,,0.00,0.0,WeatherDisplay:10.37,2013-08-10 22:11:00,
2013-08-11 00:16:00,57.6,51.8,30.06,West,265,3.5,3.5,81,0.01,CLR,,0.00,0.0,WeatherDisplay:10.37,2013-08-10 22:16:00,
2013-08-11 00:21:00,57.8,52.0,30.06,West,265,3.5,3.5,81,0.01,CLR,,0.00,0.0,WeatherDisplay:10.37,2013-08-10 22:21:00,
2013-08-11 00:26:00,58.1,52.3,30.06,West,265,3.5,3.5,81,0.01,CLR,,0.00,0.0,WeatherDisplay:10.37,2013-08-10 22:26:00,
2013-08-11 00:31:00,58.1,52.3,30.06,West,265,3.5,3.5,81,0.01,CLR,,0.00,0.0,WeatherDisplay:10.37,2013-08-10 22:31:00,
2013-08-11 00:36:00,58.0,52.2,30.06,West,265,3.5,3.5,81,0.01,CLR,,0.00,0.0,WeatherDisplay:10.37,2013-08-10 22:36:00,
2013-08-11 00:41:00,57.9,52.1,30.06,West,264,2.3,2.3,81,0.01,CLR,,0.00,0.0,WeatherDisplay:10.37,2013-08-10 22:41:00,
2013-08-11 00:46:00,57.6,51.8,30.06,West,265,2.3,2.3,81,0.01,CLR,,0.00,0.0,WeatherDisplay:10.37,2013-08-10 22:46:00,
2013-08-11 00:51:00,57.6,51.8,30.06,West,264,2.3,2.3,81,0.01,CLR,,0.00,0.0,WeatherDisplay:10.37,2013-08-10 22:51:00,
2013-08-11 00:56:00,57.5,51.7,30.06,West,265,3.5,3.5,81,0.01,CLR,,0.00,0.0,WeatherDisplay:10.37,2013-08-10 22:56:00,
2013-08-11 00:58:00,57.4,51.6,30.06,West,264,3.5,3.5,81,0.01,CLR,,0.00,0.0,WeatherDisplay:10.37,2013-08-10 22:58:00,
2013-08-11 01:03:00,57.3,51.5,30.06,West,264,2.3,2.3,81,0.00,CLR,,0.00,0.0,WeatherDisplay:10.37,2013-08-10 23:03:00,
2013-08-11 01:08:00,57.4,51.6,30.06,West,265,1.2,0.0,81,0.00,CLR,,0.00,0.0,WeatherDisplay:10.37,2013-08-10 23:08:00,
2013-08-11 01:13:00,57.1,51.3,30.05,West,265,1.2,1.2,81,0.00,CLR,,0.00,0.0,WeatherDisplay:10.37,2013-08-10 23:13:00,
2013-08-11 01:18:00,57.0,51.2,30.06,West,264,1.2,0.0,81,0.00,CLR,,0.00,0.0,WeatherDisplay:10.37,2013-08-10 23:18:00,
2013-08-11 01:23:00,57.1,51.3,30.05,West,264,1.2,1.2,81,0.00,CLR,,0.00,0.0,WeatherDisplay:10.37,2013-08-10 23:23:00,
2013-08-11 01:28:00,56.8,51.0,30.05,West,264,0.0,0.0,81,0.00,CLR,,0.00,0.0,WeatherDisplay:10.37,2013-08-10 23:28:00,
2013-08-11 01:33:00,56.7,50.9,30.05,West,264,1.2,0.0,81,0.00,CLR,,0.00,0.0,WeatherDisplay:10.37,2013-08-10 23:33:00,
2013-08-11 01:38:00,56.4,50.6,30.05,West,265,0.0,0.0,81,0.00,CLR,,0.00,0.0,WeatherDisplay:10.37,2013-08-10 23:38:00,
2013-08-11 01:43:00,56.1,50.3,30.05,West,265,0.0,0.0,81,0.00,CLR,,0.00,0.0,WeatherDisplay:10.37,2013-08-10 23:43:00,
2013-08-11 01:48:00,56.3,50.5,30.05,West,265,1.2,1.2,81,0.00,CLR,,0.00,0.0,WeatherDisplay:10.37,2013-08-10 23:48:00,
2013-08-11 01:53:00,56.2,50.4,30.05,West,264,1.2,0.0,81,0.00,CLR,,0.00,0.0,WeatherDisplay:10.37,2013-08-10 23:53:00,
2013-08-11 01:58:00,56.4,50.6,30.05,West,265,1.0,0.0,81,0.00,CLR,,0.00,0.0,WeatherDisplay:10.37,2013-08-10 23:58:00,
2013-08-11 02:03:00,56.2,50.8,30.05,West,264,3.5,3.5,82,0.00,CLR,,0.00,0.0,WeatherDisplay:10.37,2013-08-11 00:03:00,
2013-08-11 02:08:00,56.2,50.8,30.05,West,265,2.3,2.3,82,0.00,CLR,,0.00,0.0,WeatherDisplay:10.37,2013-08-11 00:08:00,
2013-08-11 02:13:00,56.1,50.7,30.05,West,264,3.5,3.5,82,0.00,CLR,,0.00,0.0,WeatherDisplay:10.37,2013-08-11 00:13:00,
2013-08-11 02:18:00,56.1,50.7,30.05,West,264,1.2,1.2,82,0.00,CLR,,0.00,0.0,WeatherDisplay:10.37,2013-08-11 00:18:00,
2013-08-11 02:23:00,55.9,50.2,30.05,West,264,0.0,0.0,81,0.00,CLR,,0.00,0.0,WeatherDisplay:10.37,2013-08-11 00:23:00,
2013-08-11 02:28:00,55.4,49.7,30.05,West,264,1.2,1.2,81,0.00,CLR,,0.00,0.0,WeatherDisplay:10.37,2013-08-11 00:28:00,
2013-08-11 02:33:00,55.6,49.9,30.05,West,264,1.2,0.0,81,0.00,CLR,,0.00,0.0,WeatherDisplay:10.37,2013-08-11 00:33:00,
2013-08-11 02:38:00,55.5,50.1,30.05,West,265,1.2,0.0,82,0.00,CLR,,0.00,0.0,WeatherDisplay:10.37,2013-08-11 00:38:00,
2013-08-11 02:43:00,55.4,50.0,30.04,West,265,0.0,0.0,82,0.00,CLR,,0.00,0.0,WeatherDisplay:10.37,2013-08-11 00:43:00,
2013-08-11 02:48:00,55.4,50.0,30.04,West,265,0.0,0.0,82,0.00,CLR,,0.00,0.0,WeatherDisplay:10.37,2013-08-11 00:48:00,
2013-08-11 02:53:00,55.1,49.4,30.04,West,265,0.0,0.0,81,0.00,CLR,,0.00,0.0,WeatherDisplay:10.37,2013-08-11 00:53:00,
2013-08-11 02:58:00,55.0,49.6,30.04,West,264,0.0,0.0,82,0.00,CLR,,0.00,0.0,WeatherDisplay:10.37,2013-08-11 00:58:00,
2013-08-11 03:03:00,55.2,49.8,30.04,West,265,0.0,0.0,82,0.00,CLR,,0.00,0.0,WeatherDisplay:10.37,2013-08-11 01:03:00,
2013-08-11 03:08:00,54.9,49.5,30.04,West,265,0.0,0.0,82,0.00,CLR,,0.00,0.0,WeatherDisplay:10.37,2013-08-11 01:08:00,
2013-08-11 03:13:00,54.7,49.3,30.04,West,264,0.0,0.0,82,0.00,CLR,,0.00,0.0,WeatherDisplay:10.37,2013-08-11 01:13:00,
2013-08-11 03:18:00,54.8,49.4,30.04,West,265,0.0,0.0,82,0.00,CLR,,0.00,0.0,WeatherDisplay:10.37,2013-08-11 01:18:00,
2013-08-11 03:23:00,54.9,49.5,30.04,West,264,1.2,0.0,82,0.00,CLR,,0.00,0.0,WeatherDisplay:10.37,2013-08-11 01:23:00,
2013-08-11 03:28:00,54.8,49.4,30.03,West,265,0.0,0.0,82,0.00,CLR,,0.00,0.0,WeatherDisplay:10.37,2013-08-11 01:28:00,
2013-08-11 03:33:00,54.8,49.4,30.03,West,264,1.2,1.2,82,0.00,CLR,,0.00,0.0,WeatherDisplay:10.37,2013-08-11 01:33:00,
2013-08-11 03:38:00,54.9,49.5,30.03,West,265,0.0,0.0,82,0.00,CLR,,0.00,0.0,WeatherDisplay:10.37,2013-08-11 01:38:00,
2013-08-11 03:43:00,54.7,49.3,30.03,West,265,2.3,2.3,82,0.00,CLR,,0.00,0.0,WeatherDisplay:10.37,2013-08-11 01:43:00,
2013-08-11 03:48:00,54.5,49.1,30.03,West,264,2.3,2.3,82,0.00,CLR,,0.00,0.0,WeatherDisplay:10.37,2013-08-11 01:48:00,
2013-08-11 03:53:00,54.5,49.1,30.04,West,264,2.3,2.3,82,0.00,CLR,,0.00,0.0,WeatherDisplay:10.37,2013-08-11 01:53:00,
2013-08-11 03:58:00,54.6,49.2,30.04,West,264,2.3,2.3,82,0.00,CLR,,0.00,0.0,WeatherDisplay:10.37,2013-08-11 01:58:00,
2013-08-11 04:03:00,54.5,49.1,30.04,West,265,2.3,2.3,82,0.00,CLR,,0.00,0.0,WeatherDisplay:10.37,2013-08-11 02:03:00,
2013-08-11 04:08:00,54.4,49.0,30.04,West,264,3.5,3.5,82,0.00,CLR,,0.00,0.0,WeatherDisplay:10.37,2013-08-11 02:08:00,
2013-08-11 04:13:00,53.9,48.5,30.03,West,264,3.5,3.5,82,0.00,CLR,,0.00,0.0,WeatherDisplay:10.37,2013-08-11 02:13:00,
2013-08-11 04:18:00,53.7,48.3,30.04,West,264,1.2,1.2,82,0.00,CLR,,0.00,0.0,WeatherDisplay:10.37,2013-08-11 02:18:00,
2013-08-11 04:23:00,53.7,48.3,30.03,West,265,2.3,2.3,82,0.00,CLR,,0.00,0.0,WeatherDisplay:10.37,2013-08-11 02:23:00,
2013-08-11 04:28:00,53.9,48.5,30.03,West,264,1.2,1.2,82,0.00,CLR,,0.00,0.0,WeatherDisplay:10.37,2013-08-11 02:28:00,
2013-08-11 04:33:00,53.7,48.3,30.03,West,264,0.0,0.0,82,0.00,CLR,,0.00,0.0,WeatherDisplay:10.37,2013-08-11 02:33:00,
2013-08-11 04:38:00,53.7,48.3,30.03,West,265,1.2,1.2,82,0.00,CLR,,0.00,0.0,WeatherDisplay:10.37,2013-08-11 02:38:00,
2013-08-11 04:43:00,53.6,48.2,30.03,West,265,0.0,0.0,82,0.00,CLR,,0.00,0.0,WeatherDisplay:10.37,2013-08-11 02:43:00,
2013-08-11 04:48:00,53.4,48.0,30.04,West,265,1.2,1.2,82,0.00,CLR,,0.00,0.0,WeatherDisplay:10.37,2013-08-11 02:48:00,
2013-08-11 04:55:00,53.4,48.0,30.04,West,264,2.3,2.3,82,0.00,CLR,,0.00,0.0,WeatherDisplay:10.37,2013-08-11 02:55:00,
2013-08-11 05:00:00,53.5,48.1,30.04,West,264,3.5,3.5,82,0.00,CLR,,0.00,0.0,WeatherDisplay:10.37,2013-08-11 03:00:00,
2013-08-11 05:05:00,53.7,48.3,30.03,West,264,2.3,2.3,82,0.00,CLR,,0.00,0.0,WeatherDisplay:10.37,2013-08-11 03:05:00,
2013-08-11 05:10:00,53.9,48.5,30.03,West,265,2.3,2.3,82,0.00,CLR,,0.00,0.0,WeatherDisplay:10.37,2013-08-11 03:10:00,
2013-08-11 05:15:00,53.9,48.5,30.03,West,265,2.3,2.3,82,0.00,CLR,,0.00,0.0,WeatherDisplay:10.37,2013-08-11 03:15:00,
2013-08-11 05:20:00,53.8,48.4,30.03,West,265,1.2,1.2,82,0.00,OVC,,0.00,0.0,WeatherDisplay:10.37,2013-08-11 03:20:00,
2013-08-11 05:25:00,53.7,48.3,30.03,West,265,2.3,2.3,82,0.00,OVC,,0.00,0.0,WeatherDisplay:10.37,2013-08-11 03:25:00,
2013-08-11 05:32:00,53.6,48.2,30.03,West,265,2.3,2.3,82,0.00,OVC,,0.00,0.0,WeatherDisplay:10.37,2013-08-11 03:32:00,
2013-08-11 05:38:00,53.3,48.3,30.03,West,265,2.3,2.3,83,0.00,OVC,,0.00,0.0,WeatherDisplay:10.37,2013-08-11 03:38:00,
2013-08-11 05:43:00,53.0,47.7,30.03,West,265,0.0,0.0,82,0.00,OVC,,0.00,0.0,WeatherDisplay:10.37,2013-08-11 03:43:00,
2013-08-11 05:48:00,52.7,47.7,30.03,West,265,0.0,0.0,83,0.00,OVC,,0.00,0.0,WeatherDisplay:10.37,2013-08-11 03:48:00,
2013-08-11 05:55:00,52.5,47.5,30.03,West,264,1.2,0.0,83,0.00,OVC,,0.00,5.0,WeatherDisplay:10.37,2013-08-11 03:55:00,
2013-08-11 06:00:00,52.5,47.5,30.03,West,264,1.2,1.2,83,0.00,OVC,,0.00,7.0,WeatherDisplay:10.37,2013-08-11 04:00:00,
2013-08-11 06:01:00,52.6,47.6,30.03,West,264,1.2,1.2,83,0.00,OVC,,0.00,7.0,WeatherDisplay:10.37,2013-08-11 04:01:00,
2013-08-11 06:02:00,52.7,47.7,30.03,West,265,1.2,0.0,83,0.00,OVC,,0.00,7.0,WeatherDisplay:10.37,2013-08-11 04:02:00,
2013-08-11 06:03:00,52.7,47.7,30.03,West,264,1.2,0.0,83,0.00,OVC,,0.00,7.0,WeatherDisplay:10.37,2013-08-11 04:03:00,
2013-08-11 06:07:00,52.6,47.6,30.03,West,264,0.0,0.0,83,0.00,OVC,,0.00,11.0,WeatherDisplay:10.37,2013-08-11 04:07:00,
2013-08-11 06:08:00,52.6,47.6,30.03,West,264,0.0,0.0,83,0.00,OVC,,0.00,11.0,WeatherDisplay:10.37,2013-08-11 04:08:00,
2013-08-11 06:13:00,53.2,48.2,30.04,West,265,1.0,1.0,83,0.00,OVC,,0.00,14.0,WeatherDisplay:10.37,2013-08-11 04:13:00,
2013-08-11 06:18:00,53.2,48.2,30.04,West,265,3.5,3.5,83,0.00,OVC,,0.00,16.0,WeatherDisplay:10.37,2013-08-11 04:18:00,
2013-08-11 06:23:00,53.3,48.3,30.04,West,265,3.0,3.0,83,0.00,OVC,,0.00,21.0,WeatherDisplay:10.37,2013-08-11 04:23:00,
2013-08-11 06:28:00,53.4,48.4,30.04,West,265,3.5,3.5,83,0.00,OVC,,0.00,25.0,WeatherDisplay:10.37,2013-08-11 04:28:00,
2013-08-11 06:33:00,53.6,48.6,30.03,West,264,2.3,2.3,83,0.00,OVC,,0.00,26.0,WeatherDisplay:10.37,2013-08-11 04:33:00,
2013-08-11 06:38:00,53.8,48.8,30.03,West,264,2.3,2.3,83,0.00,OVC,,0.00,33.0,WeatherDisplay:10.37,2013-08-11 04:38:00,
2013-08-11 06:43:00,54.0,49.0,30.03,West,264,0.0,0.0,83,0.00,OVC,,0.00,42.0,WeatherDisplay:10.37,2013-08-11 04:43:00,
2013-08-11 06:48:00,54.2,49.1,30.03,West,265,0.0,0.0,83,0.00,OVC,,0.00,35.0,WeatherDisplay:10.37,2013-08-11 04:48:00,
2013-08-11 06:53:00,54.4,49.3,30.03,West,264,0.0,0.0,83,0.00,OVC,,0.00,37.0,WeatherDisplay:10.37,2013-08-11 04:53:00,
2013-08-11 06:58:00,54.5,49.4,30.04,West,264,0.0,0.0,83,0.00,OVC,,0.00,40.0,WeatherDisplay:10.37,2013-08-11 04:58:00,
2013-08-11 07:03:00,54.8,49.7,30.04,West,264,0.0,0.0,83,0.00,OVC,,0.00,44.0,WeatherDisplay:10.37,2013-08-11 05:03:00,
2013-08-11 07:08:00,55.1,50.0,30.04,West,265,0.0,0.0,83,0.00,OVC,,0.00,46.0,WeatherDisplay:10.37,2013-08-11 05:08:00,
2013-08-11 07:13:00,55.3,50.2,30.04,West,264,1.2,1.2,83,0.00,OVC,,0.00,49.0,WeatherDisplay:10.37,2013-08-11 05:13:00,
2013-08-11 07:19:00,56.2,51.1,30.04,West,264,1.0,0.0,83,0.00,OVC,,0.00,88.0,WeatherDisplay:10.37,2013-08-11 05:19:00,
2013-08-11 07:24:00,56.4,51.3,30.04,West,264,2.3,2.3,83,0.00,OVC,,0.00,69.0,WeatherDisplay:10.37,2013-08-11 05:24:00,
2013-08-11 07:29:00,56.7,51.6,30.04,West,264,2.0,2.0,83,0.00,SCT,,0.00,174.0,WeatherDisplay:10.37,2013-08-11 05:29:00,
2013-08-11 07:34:00,57.5,52.4,30.04,West,264,2.3,2.3,83,0.00,SCT,,0.00,185.0,WeatherDisplay:10.37,2013-08-11 05:34:00,
2013-08-11 07:39:00,58.0,52.9,30.04,West,265,2.3,2.3,83,0.00,SCT,,0.00,202.0,WeatherDisplay:10.37,2013-08-11 05:39:00,
2013-08-11 07:46:00,58.4,53.3,30.04,West,264,2.3,2.3,83,0.00,SCT,,0.00,214.0,WeatherDisplay:10.37,2013-08-11 05:46:00,
2013-08-11 07:51:00,59.3,53.8,30.05,West,264,2.3,2.3,82,0.00,SCT,,0.00,230.0,WeatherDisplay:10.37,2013-08-11 05:51:00,
2013-08-11 07:56:00,59.7,54.2,30.04,West,264,3.5,3.5,82,0.00,SCT,,0.00,244.0,WeatherDisplay:10.37,2013-08-11 05:56:00,
2013-08-11 08:01:00,60.5,55.0,30.04,West,264,0.0,0.0,82,0.00,SCT,,0.00,258.0,WeatherDisplay:10.37,2013-08-11 06:01:00,
2013-08-11 08:06:00,61.0,55.8,30.04,West,264,1.2,1.2,83,0.00,SCT,,0.00,272.0,WeatherDisplay:10.37,2013-08-11 06:06:00,
2013-08-11 08:11:00,61.8,56.6,30.04,West,264,2.0,2.0,83,0.00,SCT,,0.00,278.0,WeatherDisplay:10.37,2013-08-11 06:11:00,
2013-08-11 08:16:00,62.3,57.4,30.04,West,264,3.5,3.5,84,0.00,SCT,,0.00,294.0,WeatherDisplay:10.37,2013-08-11 06:16:00,
2013-08-11 08:21:00,62.6,57.7,30.04,West,264,2.3,2.3,84,0.00,SCT,,0.00,313.0,WeatherDisplay:10.37,2013-08-11 06:21:00,
2013-08-11 08:26:00,63.4,58.5,30.04,West,264,3.5,3.5,84,0.00,SCT,,0.00,318.0,WeatherDisplay:10.37,2013-08-11 06:26:00,
2013-08-11 08:31:00,63.7,58.8,30.05,West,265,4.6,4.6,84,0.00,SCT,,0.00,320.0,WeatherDisplay:10.37,2013-08-11 06:31:00,
2013-08-11 08:37:00,63.5,58.6,30.04,West,264,3.5,3.5,84,0.00,SCT,,0.00,348.0,WeatherDisplay:10.37,2013-08-11 06:37:00,
2013-08-11 08:42:00,63.7,58.8,30.04,West,264,3.5,3.5,84,0.00,SCT,,0.00,394.0,WeatherDisplay:10.37,2013-08-11 06:42:00,
2013-08-11 08:47:00,64.2,58.9,30.04,West,264,3.5,3.5,83,0.00,FEW,,0.00,406.0,WeatherDisplay:10.37,2013-08-11 06:47:00,
2013-08-11 08:52:00,64.8,59.5,30.04,West,264,4.0,4.0,83,0.00,SCT,,0.00,443.0,WeatherDisplay:10.37,2013-08-11 06:52:00,
2013-08-11 08:58:00,64.8,59.5,30.04,West,264,2.0,2.0,83,0.00,BKN,,0.00,230.0,WeatherDisplay:10.37,2013-08-11 06:58:00,
2013-08-11 09:04:00,64.2,58.9,30.04,West,264,2.3,2.3,83,0.00,SCT,,0.00,207.0,WeatherDisplay:10.37,2013-08-11 07:04:00,
2013-08-11 09:09:00,63.8,58.9,30.05,West,264,3.5,3.5,84,0.00,BKN,,0.00,216.0,WeatherDisplay:10.37,2013-08-11 07:09:00,
2013-08-11 09:14:00,63.7,58.8,30.05,West,264,2.3,2.3,84,0.00,OVC,,0.00,204.0,WeatherDisplay:10.37,2013-08-11 07:14:00,
2013-08-11 09:19:00,64.7,59.8,30.05,West,264,3.5,3.5,84,0.00,CLR,,0.00,417.0,WeatherDisplay:10.37,2013-08-11 07:19:00,
2013-08-11 09:25:00,64.1,58.8,30.05,West,264,4.6,4.6,83,0.00,BKN,,0.00,287.0,WeatherDisplay:10.37,2013-08-11 07:25:00,
2013-08-11 09:30:00,64.3,59.4,30.05,West,265,2.3,2.3,84,0.00,CLR,,0.00,621.0,WeatherDisplay:10.37,2013-08-11 07:30:00,
2013-08-11 09:36:00,66.0,60.3,30.05,West,264,2.3,2.3,82,0.00,FEW,,0.00,578.0,WeatherDisplay:10.37,2013-08-11 07:36:00,
2013-08-11 09:41:00,66.5,61.2,30.05,West,265,4.6,4.6,83,0.00,SCT,,0.00,410.0,WeatherDisplay:10.37,2013-08-11 07:41:00,
2013-08-11 09:46:00,66.5,60.8,30.05,West,265,5.0,5.0,82,0.00,SCT,,0.00,476.0,WeatherDisplay:10.37,2013-08-11 07:46:00,
2013-08-11 09:52:00,65.0,59.7,30.05,West,264,3.5,3.5,83,0.00,OVC,,0.00,601.0,WeatherDisplay:10.37,2013-08-11 07:52:00,
2013-08-11 09:58:00,65.9,60.2,30.05,NW,307,4.6,4.6,82,0.00,OVC,,0.00,304.0,WeatherDisplay:10.37,2013-08-11 07:58:00,
2013-08-11 10:03:00,66.2,60.5,30.05,NW,307,2.3,2.3,82,0.00,FEW,,0.00,612.0,WeatherDisplay:10.37,2013-08-11 08:03:00,
2013-08-11 10:08:00,67.1,61.1,30.05,NW,310,5.0,5.0,81,0.00,FEW,,0.00,635.0,WeatherDisplay:10.37,2013-08-11 08:08:00,
2013-08-11 10:13:00,66.1,59.7,30.05,NW,310,4.0,4.0,80,0.00,SCT,,0.00,536.0,WeatherDisplay:10.37,2013-08-11 08:13:00,
2013-08-11 10:18:00,67.2,61.2,30.05,NW,310,2.3,2.3,81,0.00,FEW,,0.00,635.0,WeatherDisplay:10.37,2013-08-11 08:18:00,
2013-08-11 10:23:00,67.5,61.1,30.05,NNW,338,4.0,4.0,80,0.00,FEW,,0.00,628.0,WeatherDisplay:10.37,2013-08-11 08:23:00,
2013-08-11 10:28:00,68.0,60.9,30.05,WNW,289,6.0,6.0,78,0.00,FEW,,0.00,621.0,WeatherDisplay:10.37,2013-08-11 08:28:00,
2013-08-11 10:33:00,68.3,61.2,30.05,WNW,294,4.6,4.6,78,0.00,FEW,,0.00,613.0,WeatherDisplay:10.37,2013-08-11 08:33:00,
2013-08-11 10:39:00,67.8,60.3,30.05,NNW,342,7.0,7.0,77,0.00,FEW,,0.00,668.0,WeatherDisplay:10.37,2013-08-11 08:39:00,
2013-08-11 10:44:00,68.3,61.5,30.05,WNW,301,3.5,3.5,79,0.00,FEW,,0.00,661.0,WeatherDisplay:10.37,2013-08-11 08:44:00,
2013-08-11 10:49:00,68.0,59.0,30.05,NNW,329,4.6,4.6,73,0.00,FEW,,0.00,649.0,WeatherDisplay:10.37,2013-08-11 08:49:00,
2013-08-11 10:54:00,68.5,60.3,30.05,NNW,340,3.5,3.5,75,0.00,FEW,,0.00,679.0,WeatherDisplay:10.37,2013-08-11 08:54:00,
2013-08-11 10:59:00,68.5,59.1,30.05,NNW,333,5.8,5.8,72,0.00,FEW,,0.00,687.0,WeatherDisplay:10.37,2013-08-11 08:59:00,
2013-08-11 11:04:00,69.1,61.2,30.05,WNW,287,6.0,6.0,76,0.00,FEW,,0.00,700.0,WeatherDisplay:10.37,2013-08-11 09:04:00,
2013-08-11 11:09:00,69.5,60.5,30.05,WNW,296,3.5,3.5,73,0.00,SCT,,0.00,668.0,WeatherDisplay:10.37,2013-08-11 09:09:00,
2013-08-11 11:15:00,69.5,58.9,30.05,WNW,296,3.0,3.0,69,0.00,FEW,,0.00,707.0,WeatherDisplay:10.37,2013-08-11 09:15:00,
2013-08-11 11:21:00,69.3,59.5,30.05,NW,323,6.0,6.0,71,0.00,FEW,,0.00,696.0,WeatherDisplay:10.37,2013-08-11 09:21:00,
2013-08-11 11:26:00,69.4,58.8,30.05,NNW,327,6.0,6.0,69,0.00,FEW,,0.00,717.0,WeatherDisplay:10.37,2013-08-11 09:26:00,
2013-08-11 11:31:00,70.0,58.1,30.05,WNW,303,5.8,5.8,66,0.00,FEW,,0.00,724.0,WeatherDisplay:10.37,2013-08-11 09:31:00,
2013-08-11 11:36:00,69.5,57.2,30.05,NW,316,3.5,3.5,65,0.00,FEW,,0.00,742.0,WeatherDisplay:10.37,2013-08-11 09:36:00,
2013-08-11 11:42:00,70.4,58.5,30.05,NNW,336,4.0,4.0,66,0.00,FEW,,0.00,752.0,WeatherDisplay:10.37,2013-08-11 09:42:00,
2013-08-11 11:47:00,70.4,58.5,30.05,NNW,338,3.5,3.5,66,0.00,FEW,,0.00,766.0,WeatherDisplay:10.37,2013-08-11 09:47:00,
2013-08-11 11:52:00,70.8,59.3,30.05,NE,44,3.5,3.5,67,0.00,FEW,,0.00,752.0,WeatherDisplay:10.37,2013-08-11 09:52:00,
2013-08-11 11:58:00,71.0,60.3,30.05,WNW,285,6.0,6.0,69,0.00,FEW,,0.00,784.0,WeatherDisplay:10.37,2013-08-11 09:58:00,
2013-08-11 12:03:00,71.2,61.3,30.05,West,273,3.5,3.5,71,0.00,OVC,,0.00,207.0,WeatherDisplay:10.37,2013-08-11 10:03:00,
2013-08-11 12:08:00,70.2,60.4,30.05,SW,231,4.0,4.0,71,0.00,OVC,,0.00,188.0,WeatherDisplay:10.37,2013-08-11 10:08:00,
2013-08-11 12:13:00,70.8,60.5,30.04,WNW,299,5.8,5.8,70,0.00,FEW,,0.00,840.0,WeatherDisplay:10.37,2013-08-11 10:13:00,
2013-08-11 12:18:00,71.1,61.2,30.04,NNE,33,3.5,3.5,71,0.00,FEW,,0.00,225.0,WeatherDisplay:10.37,2013-08-11 10:18:00,
2013-08-11 12:23:00,70.9,60.2,30.04,NNW,338,3.5,3.5,69,0.00,FEW,,0.00,830.0,WeatherDisplay:10.37,2013-08-11 10:23:00,
2013-08-11 12:29:00,70.9,60.2,30.03,NNE,31,6.0,6.0,69,0.00,FEW,,0.00,149.0,WeatherDisplay:10.37,2013-08-11 10:29:00,
2013-08-11 12:34:00,69.6,60.2,30.03,NNW,329,4.6,4.6,72,0.00,OVC,,0.00,209.0,WeatherDisplay:10.37,2013-08-11 10:34:00,
2013-08-11 12:41:00,70.6,60.3,30.03,NW,320,6.0,6.0,70,0.00,FEW,,0.00,867.0,WeatherDisplay:10.37,2013-08-11 10:41:00,
2013-08-11 12:46:00,71.5,62.0,30.04,NW,320,4.0,4.0,72,0.00,FEW,,0.00,860.0,WeatherDisplay:10.37,2013-08-11 10:46:00,
2013-08-11 12:51:00,71.9,60.8,30.03,NW,320,2.0,2.0,68,0.00,FEW,,0.00,896.0,WeatherDisplay:10.37,2013-08-11 10:51:00,
2013-08-11 12:57:00,73.7,59.9,30.03,West,271,7.0,7.0,62,0.00,FEW,,0.00,893.0,WeatherDisplay:10.37,2013-08-11 10:57:00,
2013-08-11 13:02:00,73.6,60.2,30.03,NW,316,5.8,5.8,63,0.00,CLR,,0.00,914.0,WeatherDisplay:10.37,2013-08-11 11:02:00,
2013-08-11 13:07:00,72.1,59.7,30.03,NNW,329,5.0,5.0,65,0.00,OVC,,0.00,357.0,WeatherDisplay:10.37,2013-08-11 11:07:00,
2013-08-11 13:13:00,71.3,60.2,30.03,WNW,286,4.0,4.0,68,0.00,OVC,,0.00,329.0,WeatherDisplay:10.37,2013-08-11 11:13:00,
2013-08-11 13:21:00,70.5,59.0,30.03,NW,323,6.0,6.0,67,0.00,OVC,,0.00,348.0,WeatherDisplay:10.37,2013-08-11 11:21:00,
2013-08-11 13:26:00,72.0,60.0,30.02,NW,321,7.0,7.0,66,0.00,FEW,,0.00,766.0,WeatherDisplay:10.37,2013-08-11 11:26:00,
2013-08-11 13:31:00,72.4,60.4,30.02,NW,310,3.5,3.5,66,0.00,FEW,,0.00,868.0,WeatherDisplay:10.37,2013-08-11 11:31:00,
2013-08-11 13:37:00,73.4,60.9,30.02,West,279,6.9,6.9,65,0.00,CLR,,0.00,905.0,WeatherDisplay:10.37,2013-08-11 11:37:00,
2013-08-11 13:42:00,73.4,59.6,30.02,WSW,246,5.0,5.0,62,0.00,BKN,,0.00,345.0,WeatherDisplay:10.37,2013-08-11 11:42:00,
2013-08-11 13:47:00,72.1,58.8,30.02,WNW,298,9.0,9.0,63,0.00,OVC,,0.00,204.0,WeatherDisplay:10.37,2013-08-11 11:47:00,
2013-08-11 13:52:00,70.5,59.4,30.02,WSW,255,9.0,9.0,68,0.00,OVC,,0.00,114.0,WeatherDisplay:10.37,2013-08-11 11:52:00,
2013-08-11 13:57:00,69.6,59.0,30.02,West,265,5.0,5.0,69,0.00,OVC,,0.00,76.0,WeatherDisplay:10.37,2013-08-11 11:57:00,
2013-08-11 14:02:00,69.1,58.1,30.02,West,277,8.0,8.0,68,0.00,OVC,,0.00,123.0,WeatherDisplay:10.37,2013-08-11 12:02:00,
2013-08-11 14:07:00,68.8,58.2,30.02,West,264,9.2,9.2,69,0.00,OVC,,0.00,165.0,WeatherDisplay:10.37,2013-08-11 12:07:00,
2013-08-11 14:12:00,69.1,59.3,30.02,West,281,7.0,7.0,71,0.00,OVC,,0.00,195.0,WeatherDisplay:10.37,2013-08-11 12:12:00,
2013-08-11 14:17:00,69.6,58.6,30.02,West,271,11.0,11.0,68,0.00,OVC,,0.00,345.0,WeatherDisplay:10.37,2013-08-11 12:17:00,
2013-08-11 14:22:00,70.8,59.7,30.02,West,274,9.2,9.2,68,0.00,SCT,,0.00,661.0,WeatherDisplay:10.37,2013-08-11 12:22:00,
2013-08-11 14:28:00,72.2,60.2,30.02,WNW,292,10.4,10.4,66,0.00,BKN,,0.00,369.0,WeatherDisplay:10.37,2013-08-11 12:28:00,
2013-08-11 14:33:00,71.9,59.9,30.02,NW,320,8.1,8.1,66,0.00,SCT,,0.00,554.0,WeatherDisplay:10.37,2013-08-11 12:33:00,
2013-08-11 14:38:00,72.1,60.1,30.02,WNW,302,10.4,10.4,66,0.00,SCT,,0.00,686.0,WeatherDisplay:10.37,2013-08-11 12:38:00,
2013-08-11 14:43:00,73.1,60.2,30.01,WNW,286,8.1,8.1,64,0.00,FEW,,0.00,708.0,WeatherDisplay:10.37,2013-08-11 12:43:00,
2013-08-11 14:49:00,73.8,60.9,30.01,West,261,9.0,9.0,64,0.00,FEW,,0.00,693.0,WeatherDisplay:10.37,2013-08-11 12:49:00,
2013-08-11 14:56:00,74.3,60.4,30.01,WNW,286,11.5,11.5,62,0.00,FEW,,0.00,707.0,WeatherDisplay:10.37,2013-08-11 12:56:00,
2013-08-11 15:01:00,73.1,59.3,30.01,West,267,5.0,5.0,62,0.00,OVC,,0.00,204.0,WeatherDisplay:10.37,2013-08-11 13:01:00,
2013-08-11 15:06:00,72.4,59.1,30.01,WNW,296,5.8,5.8,63,0.00,OVC,,0.00,230.0,WeatherDisplay:10.37,2013-08-11 13:06:00,
2013-08-11 15:11:00,71.8,59.4,30.01,WNW,285,7.0,7.0,65,0.00,BKN,,0.00,332.0,WeatherDisplay:10.37,2013-08-11 13:11:00,
2013-08-11 15:18:00,72.7,60.3,30.01,WSW,250,6.0,6.0,65,0.01,RA,,0.01,773.0,WeatherDisplay:10.37,2013-08-11 13:18:00,
2013-08-11 15:23:00,73.9,58.2,30.01,West,272,11.5,11.5,58,0.01,RA,,0.01,696.0,WeatherDisplay:10.37,2013-08-11 13:23:00,
2013-08-11 15:28:00,72.6,57.9,30.01,West,261,11.5,11.5,60,0.00,OVC,,0.00,237.0,WeatherDisplay:10.37,2013-08-11 13:28:00,
2013-08-11 15:33:00,71.9,59.1,30.01,West,275,9.2,9.2,64,0.00,RA,,0.00,262.0,WeatherDisplay:10.37,2013-08-11 13:33:00,
2013-08-11 15:39:00,72.2,58.5,30.01,West,261,7.0,7.0,62,0.00,RA,,0.00,309.0,WeatherDisplay:10.37,2013-08-11 13:39:00,
2013-08-11 15:44:00,73.4,59.1,30.01,WNW,292,10.4,10.4,61,0.00,OVC,,0.00,265.0,WeatherDisplay:10.37,2013-08-11 13:44:00,
2013-08-11 15:50:00,71.6,58.8,30.01,NW,324,5.0,5.0,64,0.00,OVC,,0.00,153.0,WeatherDisplay:10.37,2013-08-11 13:50:00,
2013-08-11 15:55:00,70.9,58.5,30.01,WNW,302,9.2,9.2,65,0.00,OVC,,0.00,325.0,WeatherDisplay:10.37,2013-08-11 13:55:00,
2013-08-11 16:01:00,72.1,58.4,30.01,West,276,8.1,8.1,62,0.00,FEW,,0.00,195.0,WeatherDisplay:10.37,2013-08-11 14:01:00,
2013-08-11 16:06:00,71.8,59.4,30.01,West,271,8.0,8.0,65,0.00,OVC,,0.00,230.0,WeatherDisplay:10.37,2013-08-11 14:06:00,
2013-08-11 16:11:00,72.3,58.1,30.01,WSW,252,8.1,8.1,61,0.00,FEW,,0.00,617.0,WeatherDisplay:10.37,2013-08-11 14:11:00,
2013-08-11 16:16:00,73.7,58.5,30.01,West,281,7.0,7.0,59,0.00,FEW,,0.00,589.0,WeatherDisplay:10.37,2013-08-11 14:16:00,
2013-08-11 16:21:00,73.4,58.2,30.01,WSW,248,5.8,5.8,59,0.00,OVC,,0.00,287.0,WeatherDisplay:10.37,2013-08-11 14:21:00,
2013-08-11 16:26:00,73.1,57.9,30.01,WNW,284,11.5,11.5,59,0.00,OVC,,0.00,622.0,WeatherDisplay:10.37,2013-08-11 14:26:00,
2013-08-11 16:32:00,71.9,56.8,30.01,West,274,7.0,7.0,59,0.00,OVC,,0.00,148.0,WeatherDisplay:10.37,2013-08-11 14:32:00,
2013-08-11 16:38:00,70.9,57.2,30.01,West,275,10.4,10.4,62,0.00,OVC,,0.00,156.0,WeatherDisplay:10.37,2013-08-11 14:38:00,
2013-08-11 16:43:00,70.5,56.9,30.01,West,277,11.5,11.5,62,0.00,OVC,,0.00,160.0,WeatherDisplay:10.37,2013-08-11 14:43:00,
2013-08-11 16:48:00,70.7,57.5,30.01,WNW,297,6.0,6.0,63,0.00,OVC,,0.00,130.0,WeatherDisplay:10.37,2013-08-11 14:48:00,
2013-08-11 16:54:00,70.5,56.9,30.01,West,281,10.0,10.0,62,0.00,OVC,,0.00,176.0,WeatherDisplay:10.37,2013-08-11 14:54:00,
2013-08-11 17:00:00,70.5,56.9,30.01,NNW,345,11.5,11.5,62,0.00,OVC,,0.00,190.0,WeatherDisplay:10.37,2013-08-11 15:00:00,
2013-08-11 17:05:00,70.4,57.2,30.01,WNW,292,11.5,11.5,63,0.00,OVC,,0.00,218.0,WeatherDisplay:10.37,2013-08-11 15:05:00,
2013-08-11 17:11:00,71.2,55.2,30.01,West,281,11.5,11.5,57,0.00,BKN,,0.00,214.0,WeatherDisplay:10.37,2013-08-11 15:11:00,
2013-08-11 17:17:00,70.5,56.4,30.01,West,276,9.2,9.2,61,0.00,OVC,,0.00,167.0,WeatherDisplay:10.37,2013-08-11 15:17:00,
2013-08-11 17:22:00,70.3,57.1,30.01,NW,319,11.5,11.5,63,0.00,BKN,,0.00,216.0,WeatherDisplay:10.37,2013-08-11 15:22:00,
2013-08-11 17:27:00,70.0,56.8,30.01,NW,306,11.5,11.5,63,0.00,BKN,,0.00,227.0,WeatherDisplay:10.37,2013-08-11 15:27:00,
2013-08-11 17:32:00,69.9,57.2,30.01,WNW,293,11.5,11.5,64,0.00,BKN,,0.00,193.0,WeatherDisplay:10.37,2013-08-11 15:32:00,
2013-08-11 17:37:00,69.5,56.8,30.01,NNW,337,9.2,9.2,64,0.00,BKN,,0.00,216.0,WeatherDisplay:10.37,2013-08-11 15:37:00,
2013-08-11 17:47:00,69.7,57.4,30.01,NNW,327,6.9,0.0,65,0.00,OVC,,0.00,260.0,WeatherDisplay:10.37,2013-08-11 15:47:00,
2013-08-11 17:52:00,70.1,57.4,30.01,North,355,5.8,5.8,64,0.00,BKN,,0.00,230.0,WeatherDisplay:10.37,2013-08-11 15:52:00,
2013-08-11 17:57:00,69.8,56.2,30.01,NNW,334,9.2,9.2,62,0.00,FEW,,0.00,350.0,WeatherDisplay:10.37,2013-08-11 15:57:00,
2013-08-11 18:02:00,69.8,56.6,30.02,NNW,338,8.1,8.1,63,0.00,SCT,,0.00,283.0,WeatherDisplay:10.37,2013-08-11 16:02:00,
2013-08-11 18:08:00,69.2,56.1,30.02,NNW,332,10.4,10.4,63,0.00,SCT,,0.00,276.0,WeatherDisplay:10.37,2013-08-11 16:08:00,
2013-08-11 18:14:00,69.6,56.9,30.01,NW,326,8.1,8.1,64,0.00,OVC,,0.00,95.0,WeatherDisplay:10.37,2013-08-11 16:14:00,
2013-08-11 18:19:00,68.3,55.6,30.01,NW,304,8.1,8.1,64,0.00,OVC,,0.00,76.0,WeatherDisplay:10.37,2013-08-11 16:19:00,
2013-08-11 18:25:00,67.7,55.5,30.02,NNW,340,8.1,8.1,65,0.00,SCT,,0.00,197.0,WeatherDisplay:10.37,2013-08-11 16:25:00,
2013-08-11 18:30:00,67.7,54.6,30.02,NW,310,6.9,6.9,63,0.00,OVC,,0.00,76.0,WeatherDisplay:10.37,2013-08-11 16:30:00,
2013-08-11 18:35:00,67.1,54.9,30.02,NNW,328,8.1,8.1,65,0.00,OVC,,0.00,70.0,WeatherDisplay:10.37,2013-08-11 16:35:00,
2013-08-11 18:40:00,66.7,55.0,30.02,NNW,332,8.1,8.1,66,0.00,OVC,,0.00,67.0,WeatherDisplay:10.37,2013-08-11 16:40:00,
2013-08-11 18:45:00,66.4,54.7,30.02,NNW,334,9.2,9.2,66,0.00,OVC,,0.00,74.0,WeatherDisplay:10.37,2013-08-11 16:45:00,
2013-08-11 18:50:00,66.2,54.9,30.02,NNW,338,8.1,8.1,67,0.00,OVC,,0.00,58.0,WeatherDisplay:10.37,2013-08-11 16:50:00,
2013-08-11 18:55:00,66.1,54.4,30.02,NW,315,5.0,5.0,66,0.00,OVC,,0.00,65.0,WeatherDisplay:10.37,2013-08-11 16:55:00,
2013-08-11 19:01:00,65.9,53.8,30.02,North,349,4.6,4.6,65,0.00,OVC,,0.00,70.0,WeatherDisplay:10.37,2013-08-11 17:01:00,
2013-08-11 19:07:00,65.8,53.7,30.02,NW,324,5.8,5.8,65,0.00,OVC,,0.00,51.0,WeatherDisplay:10.37,2013-08-11 17:07:00,
2013-08-11 19:12:00,65.6,54.3,30.02,NNW,331,4.6,4.6,67,0.00,OVC,,0.00,58.0,WeatherDisplay:10.37,2013-08-11 17:12:00,
2013-08-11 19:17:00,65.4,54.2,30.02,NNW,336,3.5,3.5,67,0.00,OVC,,0.00,39.0,WeatherDisplay:10.37,2013-08-11 17:17:00,
2013-08-11 19:22:00,65.2,54.0,30.03,NW,317,3.5,3.5,67,0.00,OVC,,0.00,33.0,WeatherDisplay:10.37,2013-08-11 17:22:00,
2013-08-11 19:27:00,64.7,54.3,30.03,NNW,327,3.5,3.5,69,0.00,OVC,,0.00,44.0,WeatherDisplay:10.37,2013-08-11 17:27:00,
2013-08-11 19:32:00,64.7,53.9,30.03,NNW,331,3.5,3.5,68,0.00,OVC,,0.00,33.0,WeatherDisplay:10.37,2013-08-11 17:32:00,
2013-08-11 19:40:00,64.3,53.9,30.03,NNW,327,4.0,4.0,69,0.00,OVC,,0.00,28.0,WeatherDisplay:10.37,2013-08-11 17:40:00,
2013-08-11 19:45:00,64.0,54.0,30.03,NNW,327,3.5,3.5,70,0.00,OVC,,0.00,33.0,WeatherDisplay:10.37,2013-08-11 17:45:00,
2013-08-11 19:50:00,63.8,53.8,30.03,NNW,329,3.5,3.5,70,0.00,OVC,,0.00,32.0,WeatherDisplay:10.37,2013-08-11 17:50:00,
2013-08-11 19:55:00,63.8,53.8,30.03,NNW,329,3.5,3.5,70,0.00,OVC,,0.00,25.0,WeatherDisplay:10.37,2013-08-11 17:55:00,
2013-08-11 20:00:00,63.5,53.5,30.03,NW,315,4.6,4.6,70,0.00,OVC,,0.00,19.0,WeatherDisplay:10.37,2013-08-11 18:00:00,
2013-08-11 20:05:00,63.1,53.9,30.04,NW,314,3.5,3.5,72,0.00,OVC,,0.00,16.0,WeatherDisplay:10.37,2013-08-11 18:05:00,
2013-08-11 20:10:00,62.9,53.7,30.03,NW,314,2.3,2.3,72,0.00,OVC,,0.00,12.0,WeatherDisplay:10.37,2013-08-11 18:10:00,
2013-08-11 20:15:00,62.5,53.7,30.04,NW,314,3.5,3.5,73,0.00,OVC,,0.00,11.0,WeatherDisplay:10.37,2013-08-11 18:15:00,
2013-08-11 20:20:00,62.1,53.3,30.04,NW,314,3.5,3.5,73,0.00,OVC,,0.00,7.0,WeatherDisplay:10.37,2013-08-11 18:20:00,
2013-08-11 20:25:00,61.6,52.5,30.04,NW,314,3.5,3.5,72,0.00,OVC,,0.00,5.0,WeatherDisplay:10.37,2013-08-11 18:25:00,
2013-08-11 20:30:00,60.9,52.6,30.04,NW,314,2.3,2.3,74,0.00,OVC,,0.00,0.0,WeatherDisplay:10.37,2013-08-11 18:30:00,
2013-08-11 20:35:00,60.6,52.3,30.04,NW,314,2.3,2.3,74,0.00,OVC,,0.00,0.0,WeatherDisplay:10.37,2013-08-11 18:35:00,
2013-08-11 20:40:00,60.0,52.4,30.04,NW,314,3.5,3.5,76,0.00,OVC,,0.00,0.0,WeatherDisplay:10.37,2013-08-11 18:40:00,
2013-08-11 20:45:00,59.5,52.3,30.05,NW,314,3.5,3.5,77,0.00,OVC,,0.00,0.0,WeatherDisplay:10.37,2013-08-11 18:45:00,
2013-08-11 20:50:00,59.4,52.2,30.05,NW,314,3.5,3.5,77,0.00,OVC,,0.00,0.0,WeatherDisplay:10.37,2013-08-11 18:50:00,
2013-08-11 20:55:00,59.0,52.1,30.05,NW,314,1.2,1.2,78,0.00,CLR,,0.00,0.0,WeatherDisplay:10.37,2013-08-11 18:55:00,
2013-08-11 21:00:00,58.8,52.3,30.05,NW,314,2.0,2.0,79,0.00,CLR,,0.00,0.0,WeatherDisplay:10.37,2013-08-11 19:00:00,
2013-08-11 21:05:00,58.5,52.4,30.05,NW,314,2.3,2.3,80,0.00,CLR,,0.00,0.0,WeatherDisplay:10.37,2013-08-11 19:05:00,
2013-08-11 21:11:00,58.2,52.4,30.05,NW,314,3.5,3.5,81,0.00,CLR,,0.00,0.0,WeatherDisplay:10.37,2013-08-11 19:11:00,
2013-08-11 21:16:00,57.9,52.1,30.06,NW,314,3.5,3.5,81,0.00,CLR,,0.00,0.0,WeatherDisplay:10.37,2013-08-11 19:16:00,
2013-08-11 21:21:00,57.6,52.1,30.06,NW,314,2.3,2.3,82,0.00,CLR,,0.00,0.0,WeatherDisplay:10.37,2013-08-11 19:21:00,
2013-08-11 21:26:00,57.7,51.9,30.06,NW,314,1.2,1.2,81,0.00,CLR,,0.00,0.0,WeatherDisplay:10.37,2013-08-11 19:26:00,
2013-08-11 21:31:00,57.6,52.1,30.06,NW,314,1.2,1.2,82,0.00,CLR,,0.00,0.0,WeatherDisplay:10.37,2013-08-11 19:31:00,
2013-08-11 21:36:00,57.4,51.9,30.06,NW,314,2.3,2.3,82,0.00,CLR,,0.00,0.0,WeatherDisplay:10.37,2013-08-11 19:36:00,
2013-08-11 21:41:00,57.2,51.8,30.06,NW,314,2.3,2.3,82,0.00,CLR,,0.00,0.0,WeatherDisplay:10.37,2013-08-11 19:41:00,
2013-08-11 21:46:00,56.9,51.5,30.06,NW,314,2.3,2.3,82,0.00,CLR,,0.00,0.0,WeatherDisplay:10.37,2013-08-11 19:46:00,
2013-08-11 21:52:00,56.6,51.5,30.06,NW,315,1.2,0.0,83,0.00,CLR,,0.00,0.0,WeatherDisplay:10.37,2013-08-11 19:52:00,
2013-08-11 21:58:00,56.5,51.4,30.06,NW,314,1.2,1.2,83,0.00,CLR,,0.00,0.0,WeatherDisplay:10.37,2013-08-11 19:58:00,
2013-08-11 22:04:00,56.4,51.3,30.06,NW,314,1.2,1.2,83,0.00,CLR,,0.00,0.0,WeatherDisplay:10.37,2013-08-11 20:04:00,
2013-08-11 22:10:00,56.3,51.2,30.06,NW,314,3.5,3.5,83,0.00,CLR,,0.00,0.0,WeatherDisplay:10.37,2013-08-11 20:10:00,
2013-08-11 22:15:00,56.2,51.1,30.06,NW,314,2.3,2.3,83,0.00,CLR,,0.00,0.0,WeatherDisplay:10.37,2013-08-11 20:15:00,
2013-08-11 22:20:00,55.9,50.8,30.06,NW,314,2.3,2.3,83,0.00,CLR,,0.00,0.0,WeatherDisplay:10.37,2013-08-11 20:20:00,
2013-08-11 22:25:00,55.8,50.7,30.06,NW,314,2.3,2.3,83,0.00,CLR,,0.00,0.0,WeatherDisplay:10.37,2013-08-11 20:25:00,
2013-08-11 22:30:00,55.6,50.5,30.06,NW,314,2.3,2.3,83,0.00,CLR,,0.00,0.0,WeatherDisplay:10.37,2013-08-11 20:30:00,
2013-08-11 22:35:00,55.3,50.5,30.07,NW,314,2.3,2.3,84,0.00,CLR,,0.00,0.0,WeatherDisplay:10.37,2013-08-11 20:35:00,
2013-08-11 22:41:00,55.0,50.3,30.07,NW,314,2.3,2.3,84,0.00,CLR,,0.00,0.0,WeatherDisplay:10.37,2013-08-11 20:41:00,
2013-08-11 22:46:00,54.7,50.0,30.07,NW,314,2.3,2.3,84,0.00,CLR,,0.00,0.0,WeatherDisplay:10.37,2013-08-11 20:46:00,
2013-08-11 22:51:00,54.7,50.0,30.06,NW,314,3.5,3.5,84,0.00,CLR,,0.00,0.0,WeatherDisplay:10.37,2013-08-11 20:51:00,
2013-08-11 22:56:00,54.4,49.7,30.07,NW,314,2.0,2.0,84,0.00,CLR,,0.00,0.0,WeatherDisplay:10.37,2013-08-11 20:56:00,
2013-08-11 23:01:00,54.3,49.6,30.07,NW,314,1.2,1.2,84,0.00,CLR,,0.00,0.0,WeatherDisplay:10.37,2013-08-11 21:01:00,
2013-08-11 23:07:00,54.3,49.6,30.07,NW,314,3.5,3.5,84,0.00,CLR,,0.00,0.0,WeatherDisplay:10.37,2013-08-11 21:07:00,
2013-08-11 23:12:00,54.3,49.6,30.07,NW,314,3.5,3.5,84,0.00,CLR,,0.00,0.0,WeatherDisplay:10.37,2013-08-11 21:12:00,
2013-08-11 23:17:00,54.3,49.6,30.07,NW,314,3.0,3.0,84,0.00,CLR,,0.00,0.0,WeatherDisplay:10.37,2013-08-11 21:17:00,
2013-08-11 23:22:00,54.2,49.5,30.07,NW,314,3.5,3.5,84,0.00,CLR,,0.00,0.0,WeatherDisplay:10.37,2013-08-11 21:22:00,
2013-08-11 23:27:00,54.2,49.5,30.07,NW,314,2.3,2.3,84,0.00,CLR,,0.00,0.0,WeatherDisplay:10.37,2013-08-11 21:27:00,
2013-08-11 23:33:00,54.1,49.4,30.07,NW,314,2.3,2.3,84,0.00,CLR,,0.00,0.0,WeatherDisplay:10.37,2013-08-11 21:33:00,
2013-08-11 23:38:00,53.8,49.1,30.07,NW,314,2.3,2.3,84,0.00,CLR,,0.00,0.0,WeatherDisplay:10.37,2013-08-11 21:38:00,
2013-08-11 23:43:00,53.6,48.9,30.07,NW,311,3.0,3.0,84,0.00,CLR,,0.00,0.0,WeatherDisplay:10.37,2013-08-11 21:43:00,
2013-08-11 23:49:00,53.6,48.9,30.07,NW,310,3.0,3.0,84,0.00,CLR,,0.00,0.0,WeatherDisplay:10.37,2013-08-11 21:49:00,
2013-08-11 23:56:00,53.5,48.8,30.07,WNW,294,3.5,3.5,84,0.00,CLR,,0.00,0.0,WeatherDisplay:10.37,2013-08-11 21:56:00,